sensor_id;sensor_type;location;lat;lon;timestamp;P1;durP1;ratioP1;P2;durP2;ratioP2
33902;SDS011;20194;50.950;5.346;2023-03-01T00:01:12;12.27;;;7.30;;
33902;SDS011;20194;50.950;5.346;2023-03-01T00:03:40;8.80;;;6.88;;
33902;SDS011;20194;50.950;5.346;2023-03-01T00:06:07;14.20;;;7.75;;
33902;SDS011;20194;50.950;5.346;2023-03-01T00:08:33;14.18;;;7.40;;
33902;SDS011;20194;50.950;5.346;2023-03-01T00:13:36;11.68;;;7.65;;
33902;SDS011;20194;50.950;5.346;2023-03-01T00:16:04;10.55;;;7.00;;
33902;SDS011;20194;50.950;5.346;2023-03-01T00:18:30;13.25;;;7.68;;
33902;SDS011;20194;50.950;5.346;2023-03-01T00:20:56;13.55;;;7.05;;
33902;SDS011;20194;50.950;5.346;2023-03-01T00:23:22;14.45;;;8.15;;
33902;SDS011;20194;50.950;5.346;2023-03-01T00:25:48;12.18;;;6.82;;
33902;SDS011;20194;50.950;5.346;2023-03-01T00:28:15;11.55;;;7.22;;
33902;SDS011;20194;50.950;5.346;2023-03-01T00:30:41;10.85;;;7.15;;
33902;SDS011;20194;50.950;5.346;2023-03-01T00:33:07;13.48;;;7.68;;
33902;SDS011;20194;50.950;5.346;2023-03-01T00:35:33;10.77;;;7.22;;
33902;SDS011;20194;50.950;5.346;2023-03-01T00:37:59;13.32;;;8.05;;
33902;SDS011;20194;50.950;5.346;2023-03-01T00:40:29;12.02;;;7.10;;
33902;SDS011;20194;50.950;5.346;2023-03-01T00:42:57;13.25;;;8.48;;
33902;SDS011;20194;50.950;5.346;2023-03-01T00:45:23;13.57;;;7.85;;
33902;SDS011;20194;50.950;5.346;2023-03-01T00:47:49;21.13;;;9.02;;
33902;SDS011;20194;50.950;5.346;2023-03-01T00:50:16;14.43;;;7.85;;
33902;SDS011;20194;50.950;5.346;2023-03-01T00:52:42;11.98;;;7.38;;
33902;SDS011;20194;50.950;5.346;2023-03-01T00:55:08;14.10;;;7.15;;
33902;SDS011;20194;50.950;5.346;2023-03-01T00:57:35;9.50;;;6.97;;
33902;SDS011;20194;50.950;5.346;2023-03-01T01:00:01;13.23;;;7.75;;
33902;SDS011;20194;50.950;5.346;2023-03-01T01:02:29;13.25;;;6.70;;
33902;SDS011;20194;50.950;5.346;2023-03-01T01:04:56;18.33;;;8.23;;
33902;SDS011;20194;50.950;5.346;2023-03-01T01:07:22;11.48;;;8.00;;
33902;SDS011;20194;50.950;5.346;2023-03-01T01:09:48;12.57;;;7.82;;
33902;SDS011;20194;50.950;5.346;2023-03-01T01:12:14;11.50;;;7.05;;
33902;SDS011;20194;50.950;5.346;2023-03-01T01:14:40;18.65;;;7.80;;
33902;SDS011;20194;50.950;5.346;2023-03-01T01:17:05;13.10;;;7.28;;
33902;SDS011;20194;50.950;5.346;2023-03-01T01:19:31;17.13;;;8.18;;
33902;SDS011;20194;50.950;5.346;2023-03-01T01:21:57;12.77;;;7.05;;
33902;SDS011;20194;50.950;5.346;2023-03-01T01:24:23;12.38;;;7.43;;
33902;SDS011;20194;50.950;5.346;2023-03-01T01:26:48;15.80;;;7.85;;
33902;SDS011;20194;50.950;5.346;2023-03-01T01:29:14;13.38;;;7.97;;
33902;SDS011;20194;50.950;5.346;2023-03-01T01:31:41;12.00;;;7.45;;
33902;SDS011;20194;50.950;5.346;2023-03-01T01:34:08;16.00;;;7.93;;
33902;SDS011;20194;50.950;5.346;2023-03-01T01:36:42;10.68;;;6.38;;
33902;SDS011;20194;50.950;5.346;2023-03-01T01:39:09;12.57;;;8.60;;
33902;SDS011;20194;50.950;5.346;2023-03-01T01:41:39;12.48;;;7.28;;
33902;SDS011;20194;50.950;5.346;2023-03-01T01:46:36;13.82;;;7.68;;
33902;SDS011;20194;50.950;5.346;2023-03-01T01:49:23;14.75;;;8.30;;
33902;SDS011;20194;50.950;5.346;2023-03-01T01:52:00;15.38;;;7.75;;
33902;SDS011;20194;50.950;5.346;2023-03-01T01:54:38;10.63;;;7.15;;
33902;SDS011;20194;50.950;5.346;2023-03-01T01:57:12;17.15;;;8.50;;
33902;SDS011;20194;50.950;5.346;2023-03-01T01:59:42;17.05;;;7.72;;
33902;SDS011;20194;50.950;5.346;2023-03-01T02:02:10;17.27;;;7.60;;
33902;SDS011;20194;50.950;5.346;2023-03-01T02:04:37;17.48;;;7.53;;
33902;SDS011;20194;50.950;5.346;2023-03-01T02:07:10;14.25;;;7.55;;
33902;SDS011;20194;50.950;5.346;2023-03-01T02:09:38;17.80;;;7.72;;
33902;SDS011;20194;50.950;5.346;2023-03-01T02:12:06;12.73;;;7.75;;
33902;SDS011;20194;50.950;5.346;2023-03-01T02:14:32;14.20;;;8.70;;
33902;SDS011;20194;50.950;5.346;2023-03-01T02:16:57;15.23;;;7.95;;
33902;SDS011;20194;50.950;5.346;2023-03-01T02:19:31;14.02;;;7.60;;
33902;SDS011;20194;50.950;5.346;2023-03-01T02:22:17;13.00;;;7.47;;
33902;SDS011;20194;50.950;5.346;2023-03-01T02:27:17;14.02;;;8.82;;
33902;SDS011;20194;50.950;5.346;2023-03-01T02:29:50;15.25;;;8.70;;
33902;SDS011;20194;50.950;5.346;2023-03-01T02:32:15;14.98;;;8.15;;
33902;SDS011;20194;50.950;5.346;2023-03-01T02:37:19;16.40;;;8.30;;
33902;SDS011;20194;50.950;5.346;2023-03-01T02:39:50;17.48;;;8.45;;
33902;SDS011;20194;50.950;5.346;2023-03-01T02:42:23;10.95;;;7.88;;
33902;SDS011;20194;50.950;5.346;2023-03-01T02:44:54;11.75;;;7.97;;
33902;SDS011;20194;50.950;5.346;2023-03-01T02:47:19;15.88;;;8.70;;
33902;SDS011;20194;50.950;5.346;2023-03-01T02:49:45;20.08;;;8.80;;
33902;SDS011;20194;50.950;5.346;2023-03-01T02:55:11;17.33;;;8.40;;
33902;SDS011;20194;50.950;5.346;2023-03-01T02:57:40;11.32;;;8.40;;
33902;SDS011;20194;50.950;5.346;2023-03-01T03:00:09;17.90;;;8.35;;
33902;SDS011;20194;50.950;5.346;2023-03-01T03:02:44;13.75;;;8.07;;
33902;SDS011;20194;50.950;5.346;2023-03-01T03:05:16;18.83;;;8.60;;
33902;SDS011;20194;50.950;5.346;2023-03-01T03:07:45;13.73;;;8.15;;
33902;SDS011;20194;50.950;5.346;2023-03-01T03:10:13;14.90;;;8.00;;
33902;SDS011;20194;50.950;5.346;2023-03-01T03:12:41;12.38;;;8.43;;
33902;SDS011;20194;50.950;5.346;2023-03-01T03:15:08;13.30;;;8.63;;
33902;SDS011;20194;50.950;5.346;2023-03-01T03:17:35;15.18;;;8.27;;
33902;SDS011;20194;50.950;5.346;2023-03-01T03:20:02;17.27;;;8.43;;
33902;SDS011;20194;50.950;5.346;2023-03-01T03:22:35;13.48;;;7.30;;
33902;SDS011;20194;50.950;5.346;2023-03-01T03:25:02;14.90;;;8.68;;
33902;SDS011;20194;50.950;5.346;2023-03-01T03:27:28;16.52;;;8.43;;
33902;SDS011;20194;50.950;5.346;2023-03-01T03:29:56;12.98;;;8.05;;
33902;SDS011;20194;50.950;5.346;2023-03-01T03:32:22;18.63;;;8.82;;
33902;SDS011;20194;50.950;5.346;2023-03-01T03:34:48;15.50;;;9.27;;
33902;SDS011;20194;50.950;5.346;2023-03-01T03:37:16;16.75;;;9.60;;
33902;SDS011;20194;50.950;5.346;2023-03-01T03:40:00;13.32;;;8.25;;
33902;SDS011;20194;50.950;5.346;2023-03-01T03:42:26;14.45;;;9.20;;
33902;SDS011;20194;50.950;5.346;2023-03-01T03:44:52;20.13;;;9.60;;
33902;SDS011;20194;50.950;5.346;2023-03-01T03:47:17;16.30;;;9.07;;
33902;SDS011;20194;50.950;5.346;2023-03-01T03:49:43;16.92;;;8.48;;
33902;SDS011;20194;50.950;5.346;2023-03-01T03:52:09;16.90;;;9.13;;
33902;SDS011;20194;50.950;5.346;2023-03-01T03:54:39;18.55;;;9.10;;
33902;SDS011;20194;50.950;5.346;2023-03-01T03:57:05;16.02;;;9.65;;
33902;SDS011;20194;50.950;5.346;2023-03-01T03:59:31;21.52;;;9.18;;
33902;SDS011;20194;50.950;5.346;2023-03-01T04:01:57;17.15;;;9.80;;
33902;SDS011;20194;50.950;5.346;2023-03-01T04:04:23;14.43;;;9.70;;
33902;SDS011;20194;50.950;5.346;2023-03-01T04:06:48;18.42;;;9.10;;
33902;SDS011;20194;50.950;5.346;2023-03-01T04:09:14;17.10;;;9.07;;
33902;SDS011;20194;50.950;5.346;2023-03-01T04:11:40;16.77;;;9.38;;
33902;SDS011;20194;50.950;5.346;2023-03-01T04:14:06;14.35;;;9.23;;
33902;SDS011;20194;50.950;5.346;2023-03-01T04:16:31;17.52;;;9.15;;
33902;SDS011;20194;50.950;5.346;2023-03-01T04:18:57;14.55;;;9.27;;
33902;SDS011;20194;50.950;5.346;2023-03-01T04:21:27;16.52;;;10.10;;
33902;SDS011;20194;50.950;5.346;2023-03-01T04:23:53;16.50;;;9.95;;
33902;SDS011;20194;50.950;5.346;2023-03-01T04:26:19;17.30;;;9.65;;
33902;SDS011;20194;50.950;5.346;2023-03-01T04:28:45;15.93;;;9.68;;
33902;SDS011;20194;50.950;5.346;2023-03-01T04:31:14;19.58;;;8.90;;
33902;SDS011;20194;50.950;5.346;2023-03-01T04:33:43;16.23;;;8.98;;
33902;SDS011;20194;50.950;5.346;2023-03-01T04:36:09;18.77;;;9.57;;
33902;SDS011;20194;50.950;5.346;2023-03-01T04:38:37;17.23;;;9.63;;
33902;SDS011;20194;50.950;5.346;2023-03-01T04:41:08;14.38;;;9.02;;
33902;SDS011;20194;50.950;5.346;2023-03-01T04:43:35;14.65;;;9.35;;
33902;SDS011;20194;50.950;5.346;2023-03-01T04:46:01;21.48;;;10.77;;
33902;SDS011;20194;50.950;5.346;2023-03-01T04:48:29;18.23;;;9.82;;
33902;SDS011;20194;50.950;5.346;2023-03-01T04:50:56;14.85;;;9.32;;
33902;SDS011;20194;50.950;5.346;2023-03-01T04:53:23;14.82;;;9.70;;
33902;SDS011;20194;50.950;5.346;2023-03-01T04:55:49;17.10;;;9.73;;
33902;SDS011;20194;50.950;5.346;2023-03-01T04:58:15;17.77;;;10.07;;
33902;SDS011;20194;50.950;5.346;2023-03-01T05:00:41;17.70;;;9.77;;
33902;SDS011;20194;50.950;5.346;2023-03-01T05:03:08;20.05;;;10.05;;
33902;SDS011;20194;50.950;5.346;2023-03-01T05:05:35;16.65;;;9.75;;
33902;SDS011;20194;50.950;5.346;2023-03-01T05:08:03;13.98;;;9.55;;
33902;SDS011;20194;50.950;5.346;2023-03-01T05:10:32;17.83;;;9.52;;
33902;SDS011;20194;50.950;5.346;2023-03-01T05:13:00;17.38;;;9.85;;
33902;SDS011;20194;50.950;5.346;2023-03-01T05:15:27;17.52;;;9.73;;
33902;SDS011;20194;50.950;5.346;2023-03-01T05:17:54;15.30;;;9.50;;
33902;SDS011;20194;50.950;5.346;2023-03-01T05:20:23;21.58;;;9.85;;
33902;SDS011;20194;50.950;5.346;2023-03-01T05:22:50;21.63;;;10.43;;
33902;SDS011;20194;50.950;5.346;2023-03-01T05:25:16;18.70;;;9.73;;
33902;SDS011;20194;50.950;5.346;2023-03-01T05:27:42;18.67;;;9.38;;
33902;SDS011;20194;50.950;5.346;2023-03-01T05:30:09;15.50;;;9.73;;
33902;SDS011;20194;50.950;5.346;2023-03-01T05:32:42;20.25;;;10.40;;
33902;SDS011;20194;50.950;5.346;2023-03-01T05:35:11;23.42;;;9.90;;
33902;SDS011;20194;50.950;5.346;2023-03-01T05:37:38;19.27;;;9.88;;
33902;SDS011;20194;50.950;5.346;2023-03-01T05:40:09;18.00;;;10.05;;
33902;SDS011;20194;50.950;5.346;2023-03-01T05:42:41;22.10;;;9.93;;
33902;SDS011;20194;50.950;5.346;2023-03-01T05:45:11;21.10;;;10.52;;
33902;SDS011;20194;50.950;5.346;2023-03-01T05:47:38;19.17;;;10.18;;
33902;SDS011;20194;50.950;5.346;2023-03-01T05:50:18;17.75;;;9.57;;
33902;SDS011;20194;50.950;5.346;2023-03-01T05:52:47;17.65;;;9.75;;
33902;SDS011;20194;50.950;5.346;2023-03-01T05:55:18;15.93;;;9.52;;
33902;SDS011;20194;50.950;5.346;2023-03-01T05:57:46;18.80;;;9.50;;
33902;SDS011;20194;50.950;5.346;2023-03-01T06:00:12;16.80;;;9.68;;
33902;SDS011;20194;50.950;5.346;2023-03-01T06:02:40;17.42;;;9.98;;
33902;SDS011;20194;50.950;5.346;2023-03-01T06:05:06;16.50;;;10.02;;
33902;SDS011;20194;50.950;5.346;2023-03-01T06:07:34;18.13;;;10.35;;
33902;SDS011;20194;50.950;5.346;2023-03-01T06:10:00;13.85;;;8.77;;
33902;SDS011;20194;50.950;5.346;2023-03-01T06:12:29;18.98;;;10.48;;
33902;SDS011;20194;50.950;5.346;2023-03-01T06:14:56;23.05;;;9.88;;
33902;SDS011;20194;50.950;5.346;2023-03-01T06:17:22;22.25;;;10.52;;
33902;SDS011;20194;50.950;5.346;2023-03-01T06:19:48;23.67;;;10.55;;
33902;SDS011;20194;50.950;5.346;2023-03-01T06:22:13;20.30;;;11.00;;
33902;SDS011;20194;50.950;5.346;2023-03-01T06:24:39;19.50;;;10.52;;
33902;SDS011;20194;50.950;5.346;2023-03-01T06:27:05;21.92;;;11.45;;
33902;SDS011;20194;50.950;5.346;2023-03-01T06:29:31;19.92;;;11.30;;
33902;SDS011;20194;50.950;5.346;2023-03-01T06:31:57;23.25;;;10.60;;
33902;SDS011;20194;50.950;5.346;2023-03-01T06:34:22;18.70;;;10.45;;
33902;SDS011;20194;50.950;5.346;2023-03-01T06:36:48;21.50;;;10.10;;
33902;SDS011;20194;50.950;5.346;2023-03-01T06:39:14;19.60;;;10.18;;
33902;SDS011;20194;50.950;5.346;2023-03-01T06:41:39;17.35;;;10.15;;
33902;SDS011;20194;50.950;5.346;2023-03-01T06:44:05;21.83;;;11.23;;
33902;SDS011;20194;50.950;5.346;2023-03-01T06:46:31;22.20;;;11.00;;
33902;SDS011;20194;50.950;5.346;2023-03-01T06:48:56;21.10;;;10.95;;
33902;SDS011;20194;50.950;5.346;2023-03-01T06:51:22;24.33;;;10.80;;
33902;SDS011;20194;50.950;5.346;2023-03-01T06:53:48;20.95;;;11.20;;
33902;SDS011;20194;50.950;5.346;2023-03-01T06:56:13;19.38;;;10.57;;
33902;SDS011;20194;50.950;5.346;2023-03-01T06:58:39;19.45;;;10.90;;
33902;SDS011;20194;50.950;5.346;2023-03-01T07:01:06;23.85;;;11.80;;
33902;SDS011;20194;50.950;5.346;2023-03-01T07:03:32;25.60;;;11.15;;
33902;SDS011;20194;50.950;5.346;2023-03-01T07:05:58;19.27;;;10.15;;
33902;SDS011;20194;50.950;5.346;2023-03-01T07:08:24;18.45;;;10.10;;
33902;SDS011;20194;50.950;5.346;2023-03-01T07:10:57;21.58;;;10.77;;
33902;SDS011;20194;50.950;5.346;2023-03-01T07:13:23;22.47;;;11.83;;
33902;SDS011;20194;50.950;5.346;2023-03-01T07:15:48;20.92;;;11.43;;
33902;SDS011;20194;50.950;5.346;2023-03-01T07:18:14;20.98;;;10.55;;
33902;SDS011;20194;50.950;5.346;2023-03-01T07:20:40;17.58;;;10.90;;
33902;SDS011;20194;50.950;5.346;2023-03-01T07:23:06;28.25;;;11.52;;
33902;SDS011;20194;50.950;5.346;2023-03-01T07:25:32;31.88;;;11.43;;
33902;SDS011;20194;50.950;5.346;2023-03-01T07:27:58;25.58;;;11.20;;
33902;SDS011;20194;50.950;5.346;2023-03-01T07:30:24;26.50;;;12.38;;
33902;SDS011;20194;50.950;5.346;2023-03-01T07:32:54;20.05;;;10.82;;
33902;SDS011;20194;50.950;5.346;2023-03-01T07:35:20;17.73;;;10.35;;
33902;SDS011;20194;50.950;5.346;2023-03-01T07:37:46;20.15;;;10.38;;
33902;SDS011;20194;50.950;5.346;2023-03-01T07:40:12;24.50;;;12.02;;
33902;SDS011;20194;50.950;5.346;2023-03-01T07:42:38;27.27;;;11.48;;
33902;SDS011;20194;50.950;5.346;2023-03-01T07:45:04;25.60;;;10.88;;
33902;SDS011;20194;50.950;5.346;2023-03-01T07:47:31;29.33;;;11.88;;
33902;SDS011;20194;50.950;5.346;2023-03-01T07:49:57;23.27;;;9.90;;
33902;SDS011;20194;50.950;5.346;2023-03-01T07:52:23;21.77;;;10.88;;
33902;SDS011;20194;50.950;5.346;2023-03-01T07:54:48;27.67;;;12.57;;
33902;SDS011;20194;50.950;5.346;2023-03-01T07:57:14;21.65;;;11.32;;
33902;SDS011;20194;50.950;5.346;2023-03-01T07:59:40;22.40;;;11.25;;
33902;SDS011;20194;50.950;5.346;2023-03-01T08:02:06;20.48;;;11.38;;
33902;SDS011;20194;50.950;5.346;2023-03-01T08:04:32;26.23;;;11.80;;
33902;SDS011;20194;50.950;5.346;2023-03-01T08:06:58;17.33;;;10.27;;
33902;SDS011;20194;50.950;5.346;2023-03-01T08:09:24;25.02;;;12.02;;
33902;SDS011;20194;50.950;5.346;2023-03-01T08:11:50;28.33;;;11.52;;
33902;SDS011;20194;50.950;5.346;2023-03-01T08:14:16;19.58;;;10.07;;
33902;SDS011;20194;50.950;5.346;2023-03-01T08:16:41;23.10;;;11.38;;
33902;SDS011;20194;50.950;5.346;2023-03-01T08:19:09;22.58;;;10.70;;
33902;SDS011;20194;50.950;5.346;2023-03-01T08:21:36;18.52;;;10.73;;
33902;SDS011;20194;50.950;5.346;2023-03-01T08:24:02;21.83;;;11.00;;
33902;SDS011;20194;50.950;5.346;2023-03-01T08:26:30;24.13;;;10.90;;
33902;SDS011;20194;50.950;5.346;2023-03-01T08:28:57;22.10;;;11.13;;
33902;SDS011;20194;50.950;5.346;2023-03-01T08:31:23;20.02;;;11.48;;
33902;SDS011;20194;50.950;5.346;2023-03-01T08:33:59;19.83;;;11.45;;
33902;SDS011;20194;50.950;5.346;2023-03-01T08:36:26;22.58;;;11.55;;
33902;SDS011;20194;50.950;5.346;2023-03-01T08:38:53;19.83;;;10.15;;
33902;SDS011;20194;50.950;5.346;2023-03-01T08:41:19;17.00;;;9.88;;
33902;SDS011;20194;50.950;5.346;2023-03-01T08:43:45;17.38;;;11.30;;
33902;SDS011;20194;50.950;5.346;2023-03-01T08:46:11;21.13;;;11.00;;
33902;SDS011;20194;50.950;5.346;2023-03-01T08:48:38;17.42;;;11.00;;
33902;SDS011;20194;50.950;5.346;2023-03-01T08:51:11;20.83;;;10.07;;
33902;SDS011;20194;50.950;5.346;2023-03-01T08:53:42;21.02;;;10.50;;
33902;SDS011;20194;50.950;5.346;2023-03-01T08:56:08;20.67;;;9.45;;
33902;SDS011;20194;50.950;5.346;2023-03-01T08:58:35;17.45;;;8.88;;
33902;SDS011;20194;50.950;5.346;2023-03-01T09:01:06;19.52;;;11.98;;
33902;SDS011;20194;50.950;5.346;2023-03-01T09:03:33;25.02;;;10.95;;
33902;SDS011;20194;50.950;5.346;2023-03-01T09:06:02;13.57;;;8.32;;
33902;SDS011;20194;50.950;5.346;2023-03-01T09:08:29;19.17;;;9.60;;
33902;SDS011;20194;50.950;5.346;2023-03-01T09:10:55;21.17;;;10.73;;
33902;SDS011;20194;50.950;5.346;2023-03-01T09:13:21;18.70;;;10.30;;
33902;SDS011;20194;50.950;5.346;2023-03-01T09:15:50;18.33;;;10.25;;
33902;SDS011;20194;50.950;5.346;2023-03-01T09:18:16;22.40;;;11.32;;
33902;SDS011;20194;50.950;5.346;2023-03-01T09:20:41;20.15;;;11.02;;
33902;SDS011;20194;50.950;5.346;2023-03-01T09:23:07;19.08;;;11.48;;
33902;SDS011;20194;50.950;5.346;2023-03-01T09:25:33;17.98;;;10.02;;
33902;SDS011;20194;50.950;5.346;2023-03-01T09:28:00;23.27;;;11.13;;
33902;SDS011;20194;50.950;5.346;2023-03-01T09:30:25;18.83;;;10.45;;
33902;SDS011;20194;50.950;5.346;2023-03-01T09:32:51;18.58;;;11.32;;
33902;SDS011;20194;50.950;5.346;2023-03-01T09:35:17;18.30;;;10.05;;
33902;SDS011;20194;50.950;5.346;2023-03-01T09:37:44;19.17;;;9.75;;
33902;SDS011;20194;50.950;5.346;2023-03-01T09:40:15;19.48;;;11.10;;
33902;SDS011;20194;50.950;5.346;2023-03-01T09:42:48;16.63;;;8.75;;
33902;SDS011;20194;50.950;5.346;2023-03-01T09:45:25;19.65;;;10.60;;
33902;SDS011;20194;50.950;5.346;2023-03-01T09:47:59;24.13;;;11.52;;
33902;SDS011;20194;50.950;5.346;2023-03-01T09:50:28;20.67;;;10.30;;
33902;SDS011;20194;50.950;5.346;2023-03-01T09:53:07;18.02;;;11.60;;
33902;SDS011;20194;50.950;5.346;2023-03-01T09:55:43;16.95;;;10.70;;
33902;SDS011;20194;50.950;5.346;2023-03-01T09:58:47;24.38;;;10.88;;
33902;SDS011;20194;50.950;5.346;2023-03-01T10:06:45;20.13;;;10.43;;
33902;SDS011;20194;50.950;5.346;2023-03-01T10:09:20;22.50;;;10.98;;
33902;SDS011;20194;50.950;5.346;2023-03-01T10:11:50;18.83;;;11.15;;
33902;SDS011;20194;50.950;5.346;2023-03-01T10:22:44;22.23;;;11.73;;
33902;SDS011;20194;50.950;5.346;2023-03-01T10:25:15;25.02;;;12.40;;
33902;SDS011;20194;50.950;5.346;2023-03-01T10:30:25;22.73;;;12.15;;
33902;SDS011;20194;50.950;5.346;2023-03-01T10:32:58;20.08;;;11.20;;
33902;SDS011;20194;50.950;5.346;2023-03-01T10:35:25;18.20;;;11.07;;
33902;SDS011;20194;50.950;5.346;2023-03-01T10:38:11;24.80;;;12.10;;
33902;SDS011;20194;50.950;5.346;2023-03-01T10:43:40;24.90;;;11.32;;
33902;SDS011;20194;50.950;5.346;2023-03-01T10:51:44;20.13;;;11.20;;
33902;SDS011;20194;50.950;5.346;2023-03-01T10:54:30;25.05;;;11.30;;
33902;SDS011;20194;50.950;5.346;2023-03-01T10:56:58;23.80;;;11.00;;
33902;SDS011;20194;50.950;5.346;2023-03-01T10:59:30;23.85;;;12.20;;
33902;SDS011;20194;50.950;5.346;2023-03-01T11:02:03;23.15;;;12.35;;
33902;SDS011;20194;50.950;5.346;2023-03-01T11:04:58;21.48;;;10.70;;
33902;SDS011;20194;50.950;5.346;2023-03-01T11:07:26;22.67;;;12.63;;
33902;SDS011;20194;50.950;5.346;2023-03-01T11:09:53;22.90;;;12.65;;
33902;SDS011;20194;50.950;5.346;2023-03-01T11:12:19;23.20;;;12.43;;
33902;SDS011;20194;50.950;5.346;2023-03-01T11:14:55;24.42;;;12.75;;
33902;SDS011;20194;50.950;5.346;2023-03-01T11:17:27;22.45;;;11.27;;
33902;SDS011;20194;50.950;5.346;2023-03-01T11:22:32;18.70;;;10.90;;
33902;SDS011;20194;50.950;5.346;2023-03-01T11:25:00;20.65;;;10.75;;
33902;SDS011;20194;50.950;5.346;2023-03-01T11:27:35;19.63;;;11.68;;
33902;SDS011;20194;50.950;5.346;2023-03-01T11:33:15;21.98;;;12.82;;
33902;SDS011;20194;50.950;5.346;2023-03-01T11:38:26;14.70;;;7.85;;
33902;SDS011;20194;50.950;5.346;2023-03-01T11:41:15;22.77;;;11.57;;
33902;SDS011;20194;50.950;5.346;2023-03-01T12:11:02;20.50;;;11.27;;
33902;SDS011;20194;50.950;5.346;2023-03-01T12:32:48;21.17;;;10.05;;
33902;SDS011;20194;50.950;5.346;2023-03-01T12:38:13;18.77;;;10.57;;
33902;SDS011;20194;50.950;5.346;2023-03-01T12:40:57;22.98;;;11.57;;
33902;SDS011;20194;50.950;5.346;2023-03-01T12:54:51;15.98;;;9.85;;
33902;SDS011;20194;50.950;5.346;2023-03-01T13:00:01;22.95;;;10.45;;
33902;SDS011;20194;50.950;5.346;2023-03-01T13:02:44;27.02;;;10.93;;
33902;SDS011;20194;50.950;5.346;2023-03-01T13:11:20;20.70;;;10.57;;
33902;SDS011;20194;50.950;5.346;2023-03-01T13:13:47;18.92;;;10.75;;
33902;SDS011;20194;50.950;5.346;2023-03-01T13:21:41;18.02;;;10.38;;
33902;SDS011;20194;50.950;5.346;2023-03-01T13:29:42;27.65;;;10.27;;
33902;SDS011;20194;50.950;5.346;2023-03-01T13:32:23;20.95;;;9.68;;
33902;SDS011;20194;50.950;5.346;2023-03-01T13:37:44;19.95;;;11.05;;
33902;SDS011;20194;50.950;5.346;2023-03-01T13:45:25;16.42;;;9.88;;
33902;SDS011;20194;50.950;5.346;2023-03-01T13:48:20;16.38;;;9.65;;
33902;SDS011;20194;50.950;5.346;2023-03-01T13:51:03;20.73;;;10.07;;
33902;SDS011;20194;50.950;5.346;2023-03-01T13:53:34;20.90;;;10.55;;
33902;SDS011;20194;50.950;5.346;2023-03-01T13:56:03;18.83;;;10.73;;
33902;SDS011;20194;50.950;5.346;2023-03-01T13:58:43;25.95;;;10.13;;
33902;SDS011;20194;50.950;5.346;2023-03-01T14:01:29;24.63;;;10.82;;
33902;SDS011;20194;50.950;5.346;2023-03-01T14:03:58;18.02;;;10.65;;
33902;SDS011;20194;50.950;5.346;2023-03-01T14:06:26;18.88;;;9.57;;
33902;SDS011;20194;50.950;5.346;2023-03-01T14:14:07;19.73;;;10.55;;
33902;SDS011;20194;50.950;5.346;2023-03-01T14:19:19;20.38;;;9.25;;
33902;SDS011;20194;50.950;5.346;2023-03-01T14:24:38;22.33;;;11.13;;
33902;SDS011;20194;50.950;5.346;2023-03-01T14:27:12;19.52;;;10.20;;
33902;SDS011;20194;50.950;5.346;2023-03-01T14:29:39;23.00;;;10.00;;
33902;SDS011;20194;50.950;5.346;2023-03-01T14:32:16;20.13;;;10.57;;
33902;SDS011;20194;50.950;5.346;2023-03-01T14:34:45;20.38;;;10.45;;
33902;SDS011;20194;50.950;5.346;2023-03-01T14:39:52;17.30;;;9.85;;
33902;SDS011;20194;50.950;5.346;2023-03-01T14:42:20;24.25;;;10.35;;
33902;SDS011;20194;50.950;5.346;2023-03-01T14:44:51;20.13;;;9.52;;
33902;SDS011;20194;50.950;5.346;2023-03-01T14:47:29;17.33;;;10.00;;
33902;SDS011;20194;50.950;5.346;2023-03-01T14:50:02;22.27;;;10.25;;
33902;SDS011;20194;50.950;5.346;2023-03-01T14:52:37;18.02;;;9.30;;
33902;SDS011;20194;50.950;5.346;2023-03-01T14:55:10;26.95;;;10.23;;
33902;SDS011;20194;50.950;5.346;2023-03-01T14:57:51;19.15;;;9.52;;
33902;SDS011;20194;50.950;5.346;2023-03-01T15:00:27;18.52;;;10.00;;
33902;SDS011;20194;50.950;5.346;2023-03-01T15:02:56;22.63;;;10.43;;
33902;SDS011;20194;50.950;5.346;2023-03-01T15:05:27;17.20;;;9.73;;
33902;SDS011;20194;50.950;5.346;2023-03-01T15:07:56;20.40;;;9.77;;
33902;SDS011;20194;50.950;5.346;2023-03-01T15:10:32;20.52;;;10.02;;
33902;SDS011;20194;50.950;5.346;2023-03-01T15:13:13;16.95;;;9.40;;
33902;SDS011;20194;50.950;5.346;2023-03-01T15:15:45;19.45;;;10.05;;
33902;SDS011;20194;50.950;5.346;2023-03-01T15:20:45;21.58;;;8.27;;
33902;SDS011;20194;50.950;5.346;2023-03-01T15:23:19;14.40;;;7.93;;
33902;SDS011;20194;50.950;5.346;2023-03-01T15:25:50;14.40;;;8.40;;
33902;SDS011;20194;50.950;5.346;2023-03-01T15:28:26;15.20;;;7.85;;
33902;SDS011;20194;50.950;5.346;2023-03-01T15:31:02;10.90;;;6.38;;
33902;SDS011;20194;50.950;5.346;2023-03-01T15:33:37;18.10;;;8.40;;
33902;SDS011;20194;50.950;5.346;2023-03-01T15:39:01;22.98;;;8.20;;
33902;SDS011;20194;50.950;5.346;2023-03-01T15:41:45;11.60;;;6.97;;
33902;SDS011;20194;50.950;5.346;2023-03-01T15:44:26;13.50;;;7.25;;
33902;SDS011;20194;50.950;5.346;2023-03-01T15:46:53;16.02;;;7.30;;
33902;SDS011;20194;50.950;5.346;2023-03-01T15:52:06;14.52;;;6.82;;
33902;SDS011;20194;50.950;5.346;2023-03-01T15:54:53;18.65;;;7.72;;
33902;SDS011;20194;50.950;5.346;2023-03-01T15:57:20;11.68;;;7.15;;
33902;SDS011;20194;50.950;5.346;2023-03-01T15:59:46;16.55;;;6.85;;
33902;SDS011;20194;50.950;5.346;2023-03-01T16:02:12;14.32;;;7.47;;
33902;SDS011;20194;50.950;5.346;2023-03-01T16:04:38;11.60;;;6.38;;
33902;SDS011;20194;50.950;5.346;2023-03-01T16:07:04;11.85;;;6.43;;
33902;SDS011;20194;50.950;5.346;2023-03-01T16:09:30;13.52;;;5.95;;
33902;SDS011;20194;50.950;5.346;2023-03-01T16:11:57;12.30;;;6.15;;
33902;SDS011;20194;50.950;5.346;2023-03-01T16:14:23;10.55;;;5.80;;
33902;SDS011;20194;50.950;5.346;2023-03-01T16:16:48;12.88;;;7.13;;
33902;SDS011;20194;50.950;5.346;2023-03-01T16:19:15;15.85;;;6.00;;
33902;SDS011;20194;50.950;5.346;2023-03-01T16:21:41;11.38;;;6.28;;
33902;SDS011;20194;50.950;5.346;2023-03-01T16:24:08;16.13;;;6.88;;
33902;SDS011;20194;50.950;5.346;2023-03-01T16:26:35;16.65;;;7.43;;
33902;SDS011;20194;50.950;5.346;2023-03-01T16:29:03;14.40;;;6.75;;
33902;SDS011;20194;50.950;5.346;2023-03-01T16:31:29;10.32;;;6.93;;
33902;SDS011;20194;50.950;5.346;2023-03-01T16:33:55;16.45;;;7.28;;
33902;SDS011;20194;50.950;5.346;2023-03-01T16:36:23;11.43;;;6.78;;
33902;SDS011;20194;50.950;5.346;2023-03-01T16:38:50;10.95;;;7.28;;
33902;SDS011;20194;50.950;5.346;2023-03-01T16:41:16;14.63;;;6.20;;
33902;SDS011;20194;50.950;5.346;2023-03-01T16:43:44;12.95;;;6.38;;
33902;SDS011;20194;50.950;5.346;2023-03-01T16:46:21;12.23;;;6.78;;
33902;SDS011;20194;50.950;5.346;2023-03-01T16:48:48;13.43;;;6.20;;
33902;SDS011;20194;50.950;5.346;2023-03-01T16:51:14;10.68;;;6.28;;
33902;SDS011;20194;50.950;5.346;2023-03-01T16:53:40;11.82;;;6.75;;
33902;SDS011;20194;50.950;5.346;2023-03-01T16:56:07;11.48;;;6.15;;
33902;SDS011;20194;50.950;5.346;2023-03-01T16:58:35;11.32;;;6.20;;
33902;SDS011;20194;50.950;5.346;2023-03-01T17:01:35;16.80;;;6.68;;
33902;SDS011;20194;50.950;5.346;2023-03-01T17:04:02;13.23;;;6.60;;
33902;SDS011;20194;50.950;5.346;2023-03-01T17:06:28;12.18;;;7.45;;
33902;SDS011;20194;50.950;5.346;2023-03-01T17:08:54;14.68;;;7.13;;
33902;SDS011;20194;50.950;5.346;2023-03-01T17:11:20;15.57;;;6.53;;
33902;SDS011;20194;50.950;5.346;2023-03-01T17:13:46;14.25;;;7.32;;
33902;SDS011;20194;50.950;5.346;2023-03-01T17:16:13;11.32;;;6.40;;